createdAt,value
2022-08-26T00:02:04.683Z,28.06
2022-08-26T00:05:08.130Z,26.95
2022-08-26T00:08:13.110Z,26.82
2022-08-26T00:11:16.300Z,26.65
2022-08-26T00:14:30.985Z,26.14
2022-08-26T00:17:34.567Z,25.80
2022-08-26T00:20:37.656Z,26.13
2022-08-26T00:23:41.597Z,25.96
2022-08-26T00:26:44.761Z,26.29
2022-08-26T00:29:47.907Z,26.47
2022-08-26T00:32:51.810Z,26.58
2022-08-26T00:35:55.236Z,26.59
2022-08-26T00:38:59.620Z,26.60
2022-08-26T00:42:05.299Z,26.58
2022-08-26T00:45:11.568Z,26.21
2022-08-26T00:48:19.825Z,26.41
2022-08-26T00:51:29.999Z,26.42
2022-08-26T00:54:36.242Z,26.60
2022-08-26T00:57:41.264Z,26.48
2022-08-26T01:00:45.256Z,26.44
2022-08-26T01:03:49.353Z,26.43
2022-08-26T01:06:54.342Z,26.34
2022-08-26T01:09:59.095Z,26.52
2022-08-26T01:13:08.481Z,26.46
2022-08-26T01:16:14.686Z,26.29
2022-08-26T01:19:39.120Z,26.45
2022-08-26T01:23:03.236Z,26.65
2022-08-26T01:26:19.433Z,26.62
2022-08-26T01:29:23.574Z,26.43
2022-08-26T01:32:30.150Z,26.34
2022-08-26T01:35:36.165Z,26.22
2022-08-26T01:38:40.651Z,26.24
2022-08-26T01:41:44.713Z,26.37
2022-08-26T01:44:54.941Z,26.56
2022-08-26T01:48:00.855Z,26.47
2022-08-26T01:51:06.211Z,26.44
2022-08-26T01:54:12.099Z,26.51
2022-08-26T01:57:18.266Z,26.61
2022-08-26T02:00:24.365Z,26.46
2022-08-26T02:03:27.953Z,26.45
2022-08-26T02:06:32.947Z,26.29
2022-08-26T02:09:41.668Z,26.43
2022-08-26T02:12:45.092Z,26.67
2022-08-26T02:15:48.995Z,26.76
2022-08-26T02:18:53.436Z,26.70
2022-08-26T02:21:57.249Z,26.69
2022-08-26T02:25:09.046Z,26.72
2022-08-26T02:28:13.911Z,26.47
2022-08-26T02:31:17.283Z,26.46
2022-08-26T02:34:24.498Z,26.41
2022-08-26T02:37:32.554Z,26.43
2022-08-26T02:40:40.384Z,26.36
2022-08-26T02:43:44.270Z,26.21
2022-08-26T02:46:47.980Z,26.13
2022-08-26T02:49:51.087Z,26.23
2022-08-26T02:52:54.321Z,26.01
2022-08-26T02:55:57.510Z,26.18
2022-08-26T02:59:03.039Z,26.28
2022-08-26T03:02:07.454Z,26.14
2022-08-26T03:05:11.835Z,25.89
2022-08-26T03:08:15.071Z,25.77
2022-08-26T03:11:19.383Z,25.96
2022-08-26T03:14:23.186Z,26.14
2022-08-26T03:17:28.235Z,25.93
2022-08-26T03:20:31.551Z,25.86
2022-08-26T03:23:35.389Z,25.92
2022-08-26T03:26:40.879Z,25.76
2022-08-26T03:29:56.104Z,25.76
2022-08-26T03:32:59.414Z,25.66
2022-08-26T03:36:02.570Z,25.65
2022-08-26T03:39:06.477Z,25.45
2022-08-26T03:42:09.711Z,25.48
2022-08-26T03:45:14.911Z,25.57
2022-08-26T03:48:18.203Z,25.72
2022-08-26T03:51:21.970Z,25.73
2022-08-26T03:54:29.772Z,25.85
2022-08-26T03:57:32.909Z,25.75
2022-08-26T04:00:35.984Z,25.71
2022-08-26T04:03:41.721Z,25.64
2022-08-26T04:06:44.965Z,25.63
2022-08-26T04:09:48.220Z,25.70
2022-08-26T04:12:52.111Z,25.59
2022-08-26T04:15:55.517Z,25.57
2022-08-26T04:18:59.046Z,25.53
2022-08-26T04:22:02.242Z,25.51
2022-08-26T04:25:06.855Z,25.75
2022-08-26T04:28:10.655Z,25.92
2022-08-26T04:31:15.812Z,25.15
2022-08-26T04:34:19.102Z,25.29
2022-08-26T04:37:22.496Z,25.48
2022-08-26T04:40:26.115Z,25.45
2022-08-26T04:43:30.073Z,25.47
2022-08-26T04:46:33.737Z,25.56
2022-08-26T04:49:36.854Z,25.47
2022-08-26T04:52:39.943Z,25.57
2022-08-26T04:55:44.229Z,25.68
2022-08-26T04:58:49.335Z,25.63
2022-08-26T05:01:53.944Z,25.43
2022-08-26T05:04:57.597Z,25.45
2022-08-26T05:08:00.897Z,25.50
2022-08-26T05:11:05.961Z,25.42
2022-08-26T05:14:09.060Z,25.36
2022-08-26T05:17:14.969Z,25.34
2022-08-26T05:20:20.653Z,25.18
2022-08-26T05:23:30.066Z,25.32
2022-08-26T05:26:35.623Z,25.49
2022-08-26T05:29:38.740Z,25.45
2022-08-26T05:32:41.894Z,25.48
2022-08-26T05:35:46.051Z,25.42
2022-08-26T05:38:49.754Z,25.36
2022-08-26T05:41:52.801Z,25.48
2022-08-26T05:44:56.365Z,25.38
2022-08-26T05:47:59.562Z,25.22
2022-08-26T05:51:05.701Z,25.16
2022-08-26T05:54:08.767Z,25.40
2022-08-26T05:57:13.597Z,25.47
2022-08-26T06:00:16.878Z,25.29
2022-08-26T06:03:19.998Z,25.20
2022-08-26T06:06:31.768Z,25.10
2022-08-26T06:09:38.522Z,25.15
2022-08-26T06:12:41.857Z,25.05
2022-08-26T06:15:48.946Z,25.37
2022-08-26T06:18:53.520Z,25.54
2022-08-26T06:21:56.657Z,25.52
2022-08-26T06:24:59.775Z,25.21
2022-08-26T06:28:03.637Z,25.17
2022-08-26T06:31:06.961Z,25.12
2022-08-26T06:34:11.561Z,25.26
2022-08-26T06:37:14.994Z,25.46
2022-08-26T06:40:18.747Z,25.01
2022-08-26T06:43:25.170Z,25.23
2022-08-26T06:46:28.542Z,25.12
2022-08-26T06:49:31.814Z,25.34
2022-08-26T06:52:34.904Z,25.23
2022-08-26T06:55:46.399Z,25.27
2022-08-26T06:58:50.286Z,25.12
2022-08-26T07:01:53.874Z,25.19
2022-08-26T07:04:57.370Z,25.08
2022-08-26T07:08:00.675Z,24.78
2022-08-26T07:11:11.504Z,25.08
2022-08-26T07:14:15.373Z,25.11
2022-08-26T07:17:21.110Z,25.05
2022-08-26T07:20:28.188Z,25.09
2022-08-26T07:23:31.672Z,25.03
2022-08-26T07:26:34.841Z,25.09
2022-08-26T07:29:40.006Z,24.93
2022-08-26T07:32:43.409Z,25.14
2022-08-26T07:35:46.577Z,25.11
2022-08-26T07:38:49.984Z,25.37
2022-08-26T07:41:54.644Z,25.33
2022-08-26T07:44:57.697Z,25.40
2022-08-26T07:48:00.812Z,25.30
2022-08-26T07:51:08.147Z,25.32
2022-08-26T07:54:11.277Z,24.99
2022-08-26T07:57:16.035Z,25.08
2022-08-26T08:00:22.901Z,25.18
2022-08-26T08:03:27.163Z,25.22
2022-08-26T08:06:30.394Z,24.99
2022-08-26T08:09:35.549Z,25.06
2022-08-26T08:12:39.206Z,24.96
2022-08-26T08:15:42.360Z,25.09
2022-08-26T08:18:45.863Z,25.24
2022-08-26T08:21:49.466Z,25.30
2022-08-26T08:24:53.274Z,25.02
2022-08-26T08:27:56.933Z,24.90
2022-08-26T08:31:00.276Z,24.91
2022-08-26T08:33:52.467Z,24.91
2022-08-26T08:36:58.642Z,24.93
2022-08-26T08:40:04.818Z,24.95
2022-08-26T08:43:16.183Z,24.91
2022-08-26T08:46:19.251Z,24.99
2022-08-26T08:49:23.561Z,25.17
2022-08-26T08:52:35.460Z,24.80
2022-08-26T08:56:02.194Z,24.66
2022-08-26T08:59:15.933Z,24.97
2022-08-26T09:02:35.760Z,24.98
2022-08-26T09:05:46.683Z,24.93
2022-08-26T09:08:52.166Z,24.72
2022-08-26T09:11:56.104Z,24.70
2022-08-26T09:15:07.561Z,24.83
2022-08-26T09:18:33.172Z,25.13
2022-08-26T09:21:36.804Z,24.97
2022-08-26T09:24:41.814Z,24.86
2022-08-26T09:27:53.917Z,24.88
2022-08-26T09:31:20.872Z,24.74
2022-08-26T09:34:26.480Z,24.84
2022-08-26T09:41:02.822Z,25.00
2022-08-26T09:44:15.674Z,25.13
2022-08-26T09:47:42.388Z,25.01
2022-08-26T09:50:57.787Z,25.06
2022-08-26T09:54:02.800Z,25.13
2022-08-26T09:57:35.901Z,24.89
2022-08-26T10:00:55.352Z,25.01
2022-08-26T10:04:15.282Z,24.97
2022-08-26T10:07:44.130Z,25.05
2022-08-26T10:10:47.395Z,25.20
2022-08-26T10:14:02.694Z,25.09
2022-08-26T10:17:12.567Z,25.03
2022-08-26T10:20:22.933Z,25.15
2022-08-26T10:23:28.498Z,24.92
2022-08-26T10:26:33.893Z,25.02
2022-08-26T10:29:41.669Z,24.98
2022-08-26T10:33:07.679Z,25.03
2022-08-26T10:36:15.325Z,24.94
2022-08-26T10:39:23.355Z,25.19
2022-08-26T10:42:38.857Z,25.03
2022-08-26T10:45:49.994Z,25.08
2022-08-26T10:48:57.018Z,25.07
2022-08-26T10:52:38.608Z,24.78
2022-08-26T10:56:00.030Z,24.73
2022-08-26T10:59:18.961Z,24.68
2022-08-26T11:02:38.722Z,24.86
2022-08-26T11:05:41.832Z,25.01
2022-08-26T11:08:50.129Z,24.92
2022-08-26T11:11:53.242Z,24.98
2022-08-26T11:14:59.162Z,25.14
2022-08-26T11:18:11.538Z,24.96
2022-08-26T11:21:42.594Z,24.83
2022-08-26T11:24:53.719Z,24.88
2022-08-26T11:28:01.048Z,25.18
2022-08-26T11:31:05.866Z,25.10
2022-08-26T11:34:15.399Z,25.08
2022-08-26T11:40:35.950Z,25.19
2022-08-26T11:43:40.691Z,24.94
2022-08-26T11:46:53.498Z,25.15
2022-08-26T11:50:18.081Z,24.92
2022-08-26T11:53:21.183Z,24.92
2022-08-26T11:56:31.547Z,25.08
2022-08-26T11:59:38.407Z,25.13
2022-08-26T12:02:43.239Z,25.14
2022-08-26T12:05:48.965Z,25.01
2022-08-26T12:08:53.356Z,25.12
2022-08-26T12:12:35.047Z,25.15
2022-08-26T12:15:39.167Z,25.15
2022-08-26T12:18:42.430Z,25.22
2022-08-26T12:21:49.240Z,25.06
2022-08-26T12:24:58.332Z,25.13
2022-08-26T12:28:04.935Z,25.15
2022-08-26T12:31:08.258Z,25.15
2022-08-26T12:34:17.468Z,25.20
2022-08-26T12:37:21.716Z,25.29
2022-08-26T12:40:45.034Z,24.77
2022-08-26T12:43:48.076Z,24.88
2022-08-26T12:46:51.337Z,25.17
2022-08-26T12:50:06.151Z,25.35
2022-08-26T12:53:12.178Z,25.28
2022-08-26T12:56:33.644Z,25.34
2022-08-26T12:59:36.784Z,25.38
2022-08-26T13:02:39.813Z,25.57
2022-08-26T13:05:43.111Z,25.18
2022-08-26T13:08:57.868Z,25.50
2022-08-26T13:12:02.190Z,25.66
2022-08-26T13:15:06.572Z,25.48
2022-08-26T13:18:09.635Z,25.35
2022-08-26T13:21:27.778Z,25.57
2022-08-26T13:24:37.194Z,25.82
2022-08-26T13:27:40.309Z,25.79
2022-08-26T13:30:45.582Z,25.79
2022-08-26T13:33:48.721Z,25.59
2022-08-26T13:36:54.671Z,25.67
2022-08-26T13:39:57.878Z,25.63
2022-08-26T13:43:01.700Z,25.74
2022-08-26T13:46:04.891Z,25.87
2022-08-26T13:49:08.570Z,25.75
2022-08-26T13:52:15.672Z,25.91
2022-08-26T13:55:18.875Z,26.02
2022-08-26T13:58:22.075Z,26.18
2022-08-26T14:01:30.814Z,26.42
2022-08-26T14:04:33.904Z,26.47
2022-08-26T14:07:37.218Z,26.45
2022-08-26T14:10:40.360Z,26.19
2022-08-26T14:13:43.605Z,25.99
2022-08-26T14:16:58.884Z,26.17
2022-08-26T14:20:04.538Z,26.24
2022-08-26T14:23:14.296Z,26.26
2022-08-26T14:26:29.094Z,26.53
2022-08-26T14:29:34.168Z,26.16
2022-08-26T14:32:39.654Z,25.95
2022-08-26T14:35:49.048Z,26.45
2022-08-26T14:38:53.641Z,26.77
2022-08-26T14:41:57.564Z,26.48
2022-08-26T14:45:06.118Z,26.64
2022-08-26T14:48:09.661Z,26.65
2022-08-26T14:51:12.973Z,26.54
2022-08-26T14:54:17.693Z,26.57
2022-08-26T14:57:21.421Z,26.63
2022-08-26T15:00:27.133Z,26.89
2022-08-26T15:03:30.225Z,26.68
2022-08-26T15:06:34.029Z,26.71
2022-08-26T15:09:37.924Z,26.72
2022-08-26T15:12:41.852Z,26.85
2022-08-26T15:15:44.987Z,26.60
2022-08-26T15:18:48.067Z,26.91
2022-08-26T15:21:52.149Z,26.71
2022-08-26T15:24:55.233Z,26.87
2022-08-26T15:27:58.331Z,26.78
2022-08-26T15:31:01.505Z,26.94
2022-08-26T15:34:10.188Z,26.84
2022-08-26T15:37:17.218Z,27.04
2022-08-26T15:40:22.058Z,26.97
2022-08-26T15:43:28.987Z,26.88
2022-08-26T15:46:32.595Z,27.06
2022-08-26T15:49:35.710Z,27.01
2022-08-26T15:52:41.302Z,27.47
2022-08-26T15:55:44.476Z,27.54
2022-08-26T15:58:50.169Z,27.80
2022-08-26T16:01:53.554Z,27.48
2022-08-26T16:04:56.680Z,27.57
2022-08-26T16:08:01.914Z,27.92
2022-08-26T16:11:05.101Z,28.43
2022-08-26T16:14:08.725Z,28.12
2022-08-26T16:17:11.911Z,27.73
2022-08-26T16:20:15.462Z,27.66
2022-08-26T16:23:19.471Z,27.58
2022-08-26T16:26:28.220Z,27.86
2022-08-26T16:29:31.399Z,28.39
2022-08-26T16:32:34.478Z,28.25
2022-08-26T16:35:37.852Z,27.78
2022-08-26T16:38:41.627Z,27.98
2022-08-26T16:41:44.692Z,28.05
2022-08-26T16:44:47.821Z,28.16
2022-08-26T16:47:51.393Z,28.44
2022-08-26T16:50:54.497Z,29.00
2022-08-26T16:53:58.320Z,28.50
2022-08-26T16:57:01.448Z,28.70
2022-08-26T17:00:10.937Z,28.80
2022-08-26T17:03:14.041Z,28.99
2022-08-26T17:06:17.640Z,28.94
2022-08-26T17:09:21.078Z,28.64
2022-08-26T17:12:24.181Z,28.48
2022-08-26T17:15:27.409Z,28.77
2022-08-26T17:18:31.024Z,28.53
2022-08-26T17:21:36.469Z,28.87
2022-08-26T17:24:39.923Z,28.90
2022-08-26T17:27:43.975Z,29.89
2022-08-26T17:30:47.494Z,29.40
2022-08-26T17:33:53.726Z,29.40
2022-08-26T17:36:57.298Z,29.53
2022-08-26T17:40:00.483Z,29.75
2022-08-26T17:43:03.605Z,29.94
2022-08-26T17:46:08.931Z,29.50
2022-08-26T17:49:12.076Z,29.53
2022-08-26T17:52:15.694Z,29.70
2022-08-26T17:55:19.360Z,29.90
2022-08-26T17:58:23.777Z,29.89
2022-08-26T18:01:29.346Z,29.56
2022-08-26T18:04:32.530Z,29.30
2022-08-26T18:07:44.060Z,29.23
2022-08-26T18:10:48.389Z,29.37
2022-08-26T18:13:51.515Z,29.70
2022-08-26T18:16:54.589Z,30.06
2022-08-26T18:19:57.699Z,30.91
2022-08-26T18:23:00.808Z,30.98
2022-08-26T18:26:03.979Z,31.16
2022-08-26T18:29:08.032Z,31.24
2022-08-26T18:32:11.199Z,31.29
2022-08-26T18:35:14.635Z,31.18
2022-08-26T18:38:18.284Z,31.71
2022-08-26T18:41:24.138Z,31.94
2022-08-26T18:44:29.948Z,31.44
2022-08-26T18:47:33.640Z,31.32
2022-08-26T18:50:39.934Z,30.70
2022-08-26T18:53:43.949Z,30.73
2022-08-26T18:56:47.069Z,30.72
2022-08-26T18:59:52.038Z,30.52
2022-08-26T19:02:55.297Z,31.14
2022-08-26T19:05:59.082Z,31.32
2022-08-26T19:09:07.064Z,31.25
2022-08-26T19:12:12.077Z,31.36
2022-08-26T19:15:15.175Z,31.33
2022-08-26T19:18:18.607Z,31.29
2022-08-26T19:21:25.032Z,31.99
2022-08-26T19:24:28.542Z,32.43
2022-08-26T19:27:32.450Z,32.19
2022-08-26T19:30:42.145Z,31.88
2022-08-26T19:33:45.770Z,32.30
2022-08-26T19:36:49.425Z,31.91
2022-08-26T19:39:52.786Z,31.89
2022-08-26T19:42:56.405Z,31.55
2022-08-26T19:45:59.480Z,31.27
2022-08-26T19:49:02.944Z,31.19
2022-08-26T19:52:06.480Z,31.34
2022-08-26T19:55:11.184Z,31.29
2022-08-26T19:58:14.321Z,30.90
2022-08-26T20:01:18.826Z,30.71
2022-08-26T20:04:21.976Z,30.86
2022-08-26T20:07:25.078Z,30.18
2022-08-26T20:10:28.171Z,29.99
2022-08-26T20:13:31.772Z,29.55
2022-08-26T20:16:34.944Z,29.51
2022-08-26T20:19:38.076Z,29.29
2022-08-26T20:22:41.232Z,29.35
2022-08-26T20:25:44.456Z,29.50
2022-08-26T20:28:47.543Z,29.02
2022-08-26T20:31:54.204Z,29.67
2022-08-26T20:34:59.363Z,30.19
2022-08-26T20:38:03.529Z,30.81
2022-08-26T20:41:07.062Z,30.62
2022-08-26T20:44:11.708Z,30.56
2022-08-26T20:47:14.937Z,28.85
2022-08-26T20:50:18.073Z,28.26
2022-08-26T20:53:21.369Z,28.47
2022-08-26T20:56:27.649Z,28.09
2022-08-26T20:59:30.948Z,27.63
2022-08-26T21:02:37.333Z,27.56
2022-08-26T21:05:40.462Z,27.44
2022-08-26T21:08:44.870Z,26.55
2022-08-26T21:11:48.187Z,26.40
2022-08-26T21:14:51.449Z,26.58
2022-08-26T21:17:54.767Z,26.78
2022-08-26T21:20:57.959Z,26.67
2022-08-26T21:24:01.588Z,26.00
2022-08-26T21:27:04.806Z,26.54
2022-08-26T21:30:08.673Z,26.90
2022-08-26T21:33:11.713Z,27.03
2022-08-26T21:36:15.379Z,27.27
2022-08-26T21:39:18.880Z,27.45
2022-08-26T21:42:22.660Z,27.60
2022-08-26T21:45:25.710Z,27.42
2022-08-26T21:48:33.184Z,27.44
2022-08-26T21:51:40.524Z,27.48
2022-08-26T21:54:49.439Z,27.58
2022-08-26T21:57:53.013Z,27.86
2022-08-26T22:00:57.037Z,27.86
2022-08-26T22:04:00.147Z,27.78
2022-08-26T22:07:03.552Z,27.97
2022-08-26T22:10:07.095Z,28.14
2022-08-26T22:13:11.096Z,28.81
2022-08-26T22:16:14.285Z,29.01
2022-08-26T22:19:17.540Z,29.19
2022-08-26T22:22:20.693Z,29.10
2022-08-26T22:25:23.953Z,29.18
2022-08-26T22:28:29.680Z,29.02
2022-08-26T22:31:37.043Z,29.28
2022-08-26T22:34:40.929Z,29.22
2022-08-26T22:37:44.451Z,29.10
2022-08-26T22:40:50.132Z,28.73
2022-08-26T22:43:53.540Z,28.73
2022-08-26T22:46:56.602Z,28.68
2022-08-26T22:50:01.088Z,28.21
2022-08-26T22:53:04.666Z,28.55
2022-08-26T22:56:08.164Z,28.66
2022-08-26T22:59:12.788Z,28.19
2022-08-26T23:02:17.008Z,28.30
2022-08-26T23:05:20.148Z,28.22
2022-08-26T23:08:24.102Z,28.57
2022-08-26T23:11:27.176Z,28.58
2022-08-26T23:14:30.486Z,28.59
2022-08-26T23:17:33.574Z,28.65
2022-08-26T23:20:38.788Z,28.04
2022-08-26T23:23:42.184Z,28.58
2022-08-26T23:26:45.991Z,28.53
2022-08-26T23:29:49.043Z,28.24
2022-08-26T23:32:52.803Z,28.45
2022-08-26T23:35:55.890Z,28.50
2022-08-26T23:38:59.081Z,28.54
2022-08-26T23:42:03.272Z,28.44
2022-08-26T23:45:10.979Z,28.22
2022-08-26T23:48:14.153Z,28.14
2022-08-26T23:51:21.755Z,28.26
2022-08-26T23:54:24.846Z,28.30
2022-08-26T23:57:28.186Z,28.59
